createdAt,value
2023-01-23T00:00:51.873Z,-0.59
2023-01-23T00:03:00.736Z,-0.51
2023-01-23T00:05:10.356Z,-0.59
2023-01-23T00:07:18.280Z,-0.64
2023-01-23T00:09:26.494Z,-0.70
2023-01-23T00:11:34.415Z,-0.73
2023-01-23T00:13:42.417Z,-0.75
2023-01-23T00:15:52.990Z,-0.73
2023-01-23T00:18:00.773Z,-0.68
2023-01-23T00:20:09.881Z,-0.71
2023-01-23T00:22:17.685Z,-0.68
2023-01-23T00:24:25.460Z,-0.93
2023-01-23T00:26:35.828Z,-1.06
2023-01-23T00:28:44.110Z,-0.87
2023-01-23T00:30:54.754Z,-0.83
2023-01-23T00:33:03.143Z,-0.74
2023-01-23T00:35:12.735Z,-0.73
2023-01-23T00:37:20.751Z,-0.91
2023-01-23T00:39:30.979Z,-0.92
2023-01-23T00:41:40.199Z,-0.66
2023-01-23T00:43:48.640Z,-0.75
2023-01-23T00:46:03.547Z,-0.63
2023-01-23T00:48:11.396Z,-0.87
2023-01-23T00:50:20.108Z,-0.90
2023-01-23T00:52:29.443Z,-0.72
2023-01-23T00:54:38.299Z,-0.50
2023-01-23T00:56:47.063Z,-0.51
2023-01-23T00:58:56.319Z,-0.56
2023-01-23T01:01:07.087Z,-0.55
2023-01-23T01:03:14.953Z,-0.58
2023-01-23T01:05:23.242Z,-0.76
2023-01-23T01:07:31.275Z,-0.67
2023-01-23T01:09:38.982Z,-0.68
2023-01-23T01:11:47.577Z,-0.63
2023-01-23T01:13:56.732Z,-0.47
2023-01-23T01:16:08.175Z,-0.57
2023-01-23T01:18:16.721Z,-0.85
2023-01-23T01:20:26.172Z,-0.84
2023-01-23T01:22:34.454Z,-0.63
2023-01-23T01:24:44.499Z,-0.79
2023-01-23T01:26:52.573Z,-0.83
2023-01-23T01:29:00.481Z,-0.90
2023-01-23T01:31:13.258Z,-0.73
2023-01-23T01:33:24.425Z,-0.75
2023-01-23T01:35:32.974Z,-0.70
2023-01-23T01:37:43.456Z,-0.80
2023-01-23T01:39:51.602Z,-0.92
2023-01-23T01:41:59.578Z,-0.87
2023-01-23T01:44:07.595Z,-0.96
2023-01-23T01:46:21.856Z,-0.94
2023-01-23T01:48:34.889Z,-0.87
2023-01-23T01:50:43.434Z,-0.83
2023-01-23T01:52:51.887Z,-0.92
2023-01-23T01:55:04.533Z,-0.90
2023-01-23T01:57:19.189Z,-0.71
2023-01-23T01:59:31.086Z,-0.85
2023-01-23T02:01:44.442Z,-0.79
2023-01-23T02:03:54.597Z,-0.83
2023-01-23T02:06:03.729Z,-0.74
2023-01-23T02:08:19.912Z,-0.75
2023-01-23T02:10:28.904Z,-0.86
2023-01-23T02:12:38.939Z,-0.92
2023-01-23T02:14:46.871Z,-0.91
2023-01-23T02:17:01.133Z,-0.94
2023-01-23T02:19:21.663Z,-0.93
2023-01-23T02:21:30.117Z,-0.83
2023-01-23T02:23:48.662Z,-0.66
2023-01-23T02:26:08.443Z,-0.66
2023-01-23T02:28:19.349Z,-0.71
2023-01-23T02:30:28.134Z,-0.64
2023-01-23T02:32:38.010Z,-0.67
2023-01-23T02:34:46.694Z,-0.60
2023-01-23T02:36:54.658Z,-0.70
2023-01-23T02:39:07.483Z,-0.67
2023-01-23T02:41:21.129Z,-0.66
2023-01-23T02:43:35.305Z,-0.73
2023-01-23T02:45:46.283Z,-0.65
2023-01-23T02:47:56.025Z,-0.63
2023-01-23T02:50:04.183Z,-0.68
2023-01-23T02:52:13.872Z,-0.48
2023-01-23T02:54:21.667Z,-0.56
2023-01-23T02:56:32.388Z,-0.59
2023-01-23T02:58:54.512Z,-0.59
2023-01-23T03:01:02.832Z,-0.72
2023-01-23T03:03:10.717Z,-0.69
2023-01-23T03:05:20.179Z,-0.65
2023-01-23T03:07:28.120Z,-0.60
2023-01-23T03:09:36.948Z,-0.63
2023-01-23T03:11:48.980Z,-0.73
2023-01-23T03:13:56.907Z,-0.81
2023-01-23T03:16:05.109Z,-0.73
2023-01-23T03:18:13.010Z,-0.64
2023-01-23T03:20:24.422Z,-0.46
2023-01-23T03:22:32.374Z,-0.54
2023-01-23T03:24:42.032Z,-0.49
2023-01-23T03:26:54.082Z,-0.63
2023-01-23T03:29:18.196Z,-0.55
2023-01-23T03:31:26.688Z,-0.30
2023-01-23T03:33:34.984Z,-0.27
2023-01-23T03:35:42.827Z,-0.35
2023-01-23T03:37:52.353Z,-0.30
2023-01-23T03:40:13.140Z,-0.14
2023-01-23T03:42:24.407Z,-0.07
2023-01-23T03:44:34.042Z,-0.13
2023-01-23T03:46:43.138Z,-0.14
2023-01-23T03:48:51.182Z,-0.05
2023-01-23T03:50:59.025Z,-0.01
2023-01-23T03:53:06.988Z,-0.07
2023-01-23T03:55:15.287Z,-0.21
2023-01-23T03:57:27.137Z,-0.31
2023-01-23T03:59:54.607Z,-0.26
2023-01-23T04:02:08.171Z,-0.13
2023-01-23T04:04:16.263Z,-0.03
2023-01-23T04:06:25.760Z,0.14
2023-01-23T04:08:33.853Z,0.10
2023-01-23T04:10:41.916Z,0.16
2023-01-23T04:12:57.806Z,0.17
2023-01-23T04:15:07.152Z,0.15
2023-01-23T04:17:14.931Z,-0.08
2023-01-23T04:19:23.322Z,-0.03
2023-01-23T04:21:31.241Z,0.09
2023-01-23T04:23:39.348Z,0.13
2023-01-23T04:25:47.269Z,-0.01
2023-01-23T04:27:58.894Z,-0.02
2023-01-23T04:30:07.290Z,-0.09
2023-01-23T04:32:16.471Z,-0.11
2023-01-23T04:34:27.574Z,-0.23
2023-01-23T04:36:36.453Z,-0.34
2023-01-23T04:38:44.359Z,-0.50
2023-01-23T04:41:06.815Z,-0.61
2023-01-23T04:43:21.485Z,-0.57
2023-01-23T04:45:32.265Z,-0.50
2023-01-23T04:48:00.214Z,-0.67
2023-01-23T04:50:09.469Z,-0.63
2023-01-23T04:52:21.566Z,-0.64
2023-01-23T04:54:36.332Z,-0.75
2023-01-23T04:56:45.593Z,-0.81
2023-01-23T04:58:57.768Z,-0.63
2023-01-23T05:01:07.152Z,-0.49
2023-01-23T05:03:17.697Z,-0.55
2023-01-23T05:05:28.755Z,-0.42
2023-01-23T05:07:40.707Z,-0.34
2023-01-23T05:09:52.635Z,-0.33
2023-01-23T05:12:00.634Z,-0.32
2023-01-23T05:14:14.986Z,-0.31
2023-01-23T05:16:24.146Z,-0.18
2023-01-23T05:18:55.482Z,-0.24
2023-01-23T05:21:04.234Z,-0.22
2023-01-23T05:23:12.586Z,-0.21
2023-01-23T05:25:30.975Z,-0.20
2023-01-23T05:27:40.628Z,-0.25
2023-01-23T05:29:53.768Z,-0.25
2023-01-23T05:32:05.612Z,-0.10
2023-01-23T05:34:19.359Z,-0.24
2023-01-23T05:36:27.749Z,-0.16
2023-01-23T05:38:35.848Z,-0.26
2023-01-23T05:40:44.535Z,-0.16
2023-01-23T05:42:57.937Z,-0.11
2023-01-23T05:45:23.584Z,-0.46
2023-01-23T05:47:32.232Z,-0.52
2023-01-23T05:49:40.940Z,-0.46
2023-01-23T05:51:51.203Z,-0.47
2023-01-23T05:53:59.052Z,-0.42
2023-01-23T05:56:09.266Z,-0.61
2023-01-23T05:58:32.713Z,-0.56
2023-01-23T06:01:05.056Z,-0.54
2023-01-23T06:03:33.198Z,-0.52
2023-01-23T06:06:17.027Z,-0.46
2023-01-23T06:08:25.065Z,-0.55
2023-01-23T06:10:32.856Z,-0.59
2023-01-23T06:12:40.665Z,-0.56
2023-01-23T06:14:50.027Z,-0.55
2023-01-23T06:17:00.561Z,-0.57
2023-01-23T06:19:08.532Z,-0.68
2023-01-23T06:21:18.467Z,-0.61
2023-01-23T06:23:26.392Z,-0.77
2023-01-23T06:25:34.458Z,-0.74
2023-01-23T06:27:45.863Z,-0.69
2023-01-23T06:29:54.615Z,-0.70
2023-01-23T06:32:05.792Z,-0.81
2023-01-23T06:34:14.222Z,-0.86
2023-01-23T06:36:34.079Z,-0.87
2023-01-23T06:38:41.957Z,-0.88
2023-01-23T06:40:53.728Z,-0.94
2023-01-23T06:43:11.624Z,-0.96
2023-01-23T06:45:22.656Z,-0.91
2023-01-23T06:47:34.925Z,-0.83
2023-01-23T06:49:42.851Z,-0.91
2023-01-23T06:51:50.776Z,-0.94
2023-01-23T06:53:59.324Z,-0.98
2023-01-23T06:56:09.522Z,-0.90
2023-01-23T06:58:19.431Z,-0.89
2023-01-23T07:00:28.255Z,-0.95
2023-01-23T07:02:40.826Z,-0.92
2023-01-23T07:04:48.740Z,-0.87
2023-01-23T07:06:57.384Z,-0.88
2023-01-23T07:09:05.548Z,-0.85
2023-01-23T07:11:16.067Z,-0.83
2023-01-23T07:13:25.207Z,-0.76
2023-01-23T07:15:34.663Z,-0.70
2023-01-23T07:17:45.563Z,-0.81
2023-01-23T07:19:54.383Z,-0.90
2023-01-23T07:22:02.652Z,-0.88
2023-01-23T07:24:10.565Z,-0.90
2023-01-23T07:26:18.402Z,-0.86
2023-01-23T07:28:26.204Z,-0.85
2023-01-23T07:30:35.067Z,-0.92
2023-01-23T07:32:47.179Z,-0.92
2023-01-23T07:37:26.840Z,-0.88
2023-01-23T07:39:35.826Z,-0.91
2023-01-23T07:41:46.367Z,-0.80
2023-01-23T07:43:54.832Z,-0.87
2023-01-23T07:46:03.105Z,-0.83
2023-01-23T07:48:13.535Z,-0.79
2023-01-23T07:50:21.710Z,-0.82
2023-01-23T07:52:29.947Z,-0.76
2023-01-23T07:54:37.792Z,-0.70
2023-01-23T07:56:45.572Z,-0.70
2023-01-23T07:58:55.979Z,-0.65
2023-01-23T08:01:12.929Z,-0.69
2023-01-23T08:03:23.640Z,-0.62
2023-01-23T08:05:31.620Z,-0.58
2023-01-23T08:07:39.558Z,-0.45
2023-01-23T08:09:47.574Z,-0.56
2023-01-23T08:11:55.561Z,-0.50
2023-01-23T08:14:03.601Z,-0.49
2023-01-23T08:16:13.664Z,-0.39
2023-01-23T08:18:24.251Z,-0.46
2023-01-23T08:20:32.211Z,-0.49
2023-01-23T08:22:40.990Z,-0.46
2023-01-23T08:24:49.108Z,-0.45
2023-01-23T08:26:57.156Z,-0.46
2023-01-23T08:29:06.278Z,-0.38
2023-01-23T08:31:16.399Z,-0.24
2023-01-23T08:33:26.971Z,-0.24
2023-01-23T08:35:34.923Z,-0.19
2023-01-23T08:37:42.823Z,-0.20
2023-01-23T08:39:50.942Z,-0.08
2023-01-23T08:41:59.615Z,-0.27
2023-01-23T08:44:07.644Z,-0.15
2023-01-23T08:46:15.559Z,-0.15
2023-01-23T08:48:28.303Z,-0.17
2023-01-23T08:50:37.097Z,-0.08
2023-01-23T08:52:45.151Z,0.05
2023-01-23T08:54:53.127Z,0.17
2023-01-23T08:57:01.132Z,0.22
2023-01-23T08:59:09.063Z,0.26
2023-01-23T09:01:18.174Z,0.22
2023-01-23T09:03:29.375Z,0.24
2023-01-23T09:05:39.438Z,0.11
2023-01-23T09:07:47.360Z,0.19
2023-01-23T09:09:55.130Z,0.23
2023-01-23T09:12:02.971Z,0.20
2023-01-23T09:14:10.732Z,0.15
2023-01-23T09:16:19.319Z,0.10
2023-01-23T09:18:30.065Z,0.14
2023-01-23T09:20:37.940Z,0.02
2023-01-23T09:22:46.153Z,-0.06
2023-01-23T09:24:54.163Z,-0.02
2023-01-23T09:27:01.983Z,-0.06
2023-01-23T09:29:09.941Z,-0.06
2023-01-23T09:31:18.006Z,-0.06
2023-01-23T09:33:27.680Z,0.01
2023-01-23T09:35:38.274Z,-0.01
2023-01-23T09:37:58.860Z,-0.01
2023-01-23T09:40:09.132Z,-0.14
2023-01-23T09:42:22.785Z,-0.14
2023-01-23T09:44:39.594Z,-0.21
2023-01-23T09:46:52.580Z,-0.21
2023-01-23T09:49:05.705Z,-0.22
2023-01-23T09:51:24.702Z,-0.14
2023-01-23T09:53:38.982Z,-0.09
2023-01-23T09:55:52.346Z,0.02
2023-01-23T09:58:03.565Z,-0.01
2023-01-23T10:00:18.564Z,0.05
2023-01-23T10:02:27.350Z,0.28
2023-01-23T10:04:35.495Z,0.35
2023-01-23T10:07:05.930Z,0.37
2023-01-23T10:09:33.252Z,0.42
2023-01-23T10:11:52.046Z,0.37
2023-01-23T10:14:17.532Z,0.21
2023-01-23T10:16:49.390Z,0.21
2023-01-23T10:19:11.965Z,0.42
2023-01-23T10:21:28.212Z,0.63
2023-01-23T10:24:00.085Z,0.75
2023-01-23T10:26:08.361Z,0.56
2023-01-23T10:28:27.048Z,0.54
2023-01-23T10:30:38.740Z,0.49
2023-01-23T10:32:52.713Z,0.50
2023-01-23T10:35:05.476Z,0.31
2023-01-23T10:37:21.899Z,0.30
2023-01-23T10:39:41.883Z,0.35
2023-01-23T10:42:01.487Z,0.49
2023-01-23T10:44:18.058Z,0.64
2023-01-23T10:46:32.093Z,0.59
2023-01-23T10:48:47.295Z,0.54
2023-01-23T10:50:55.486Z,0.70
2023-01-23T10:53:11.398Z,0.38
2023-01-23T10:55:34.000Z,0.46
2023-01-23T10:57:49.424Z,0.50
2023-01-23T11:00:01.674Z,0.54
2023-01-23T11:02:23.728Z,0.83
2023-01-23T11:04:34.365Z,0.69
2023-01-23T11:06:42.469Z,1.07
2023-01-23T11:08:58.265Z,0.84
2023-01-23T11:11:28.751Z,0.64
2023-01-23T11:13:36.573Z,0.44
2023-01-23T11:15:44.433Z,0.77
2023-01-23T11:17:53.654Z,1.02
2023-01-23T11:20:02.066Z,0.85
2023-01-23T11:22:29.898Z,0.86
2023-01-23T11:24:41.397Z,1.21
2023-01-23T11:27:02.018Z,1.08
2023-01-23T11:29:24.530Z,1.09
2023-01-23T11:31:35.434Z,1.24
2023-01-23T11:33:48.422Z,1.09
2023-01-23T11:36:03.972Z,0.95
2023-01-23T11:38:17.992Z,1.00
2023-01-23T11:40:29.286Z,1.23
2023-01-23T11:42:42.540Z,1.09
2023-01-23T11:44:53.482Z,1.07
2023-01-23T11:47:19.316Z,0.93
2023-01-23T11:49:40.666Z,1.13
2023-01-23T11:51:55.656Z,0.96
2023-01-23T11:54:19.573Z,0.84
2023-01-23T11:56:48.225Z,1.00
2023-01-23T11:59:22.504Z,1.12
2023-01-23T12:01:37.283Z,0.93
2023-01-23T12:04:19.923Z,0.85
2023-01-23T12:07:01.498Z,1.14
2023-01-23T12:09:16.061Z,1.23
2023-01-23T12:11:25.693Z,1.48
2023-01-23T12:13:52.384Z,1.10
2023-01-23T12:16:17.236Z,1.16
2023-01-23T12:18:40.499Z,1.47
2023-01-23T12:20:55.584Z,1.65
2023-01-23T12:23:17.659Z,1.52
2023-01-23T12:25:46.728Z,1.86
2023-01-23T12:28:02.498Z,2.00
2023-01-23T12:30:31.609Z,1.85
2023-01-23T12:32:55.634Z,1.95
2023-01-23T12:35:20.645Z,2.07
2023-01-23T12:37:46.547Z,2.00
2023-01-23T12:40:10.101Z,1.90
2023-01-23T12:42:24.575Z,1.99
2023-01-23T12:44:39.301Z,2.13
2023-01-23T12:46:54.333Z,1.93
2023-01-23T12:49:17.298Z,1.91
2023-01-23T12:51:29.895Z,1.55
2023-01-23T12:53:41.374Z,1.71
2023-01-23T12:55:58.611Z,2.00
2023-01-23T12:58:09.641Z,2.08
2023-01-23T13:00:28.491Z,2.32
2023-01-23T13:02:42.120Z,2.04
2023-01-23T13:05:05.663Z,1.90
2023-01-23T13:07:28.227Z,1.93
2023-01-23T13:09:46.057Z,2.27
2023-01-23T13:12:05.065Z,2.27
2023-01-23T13:14:25.430Z,2.41
2023-01-23T13:16:34.693Z,2.23
2023-01-23T13:18:55.548Z,2.45
2023-01-23T13:21:19.662Z,2.17
2023-01-23T13:23:33.883Z,1.83
2023-01-23T13:25:41.852Z,2.03
2023-01-23T13:27:55.912Z,2.00
2023-01-23T13:30:04.471Z,2.12
2023-01-23T13:32:24.550Z,1.98
2023-01-23T13:34:42.083Z,2.24
2023-01-23T13:36:53.909Z,2.31
2023-01-23T13:39:27.129Z,2.54
2023-01-23T13:41:37.466Z,2.54
2023-01-23T13:43:46.552Z,2.45
2023-01-23T13:45:54.829Z,1.96
2023-01-23T14:21:55.148Z,1.85
2023-01-23T14:24:04.902Z,1.82
2023-01-23T14:26:18.104Z,2.06
2023-01-23T14:28:28.551Z,1.77
2023-01-23T14:30:36.470Z,1.79
2023-01-23T14:32:45.959Z,1.73
2023-01-23T14:34:54.055Z,1.59
2023-01-23T14:37:05.477Z,1.47
2023-01-23T14:39:19.921Z,1.48
2023-01-23T14:41:31.705Z,1.43
2023-01-23T14:43:44.818Z,1.40
2023-01-23T14:45:58.683Z,1.37
2023-01-23T14:48:10.295Z,1.49
2023-01-23T14:50:21.783Z,1.37
2023-01-23T14:52:31.501Z,1.30
2023-01-23T14:54:42.024Z,1.38
2023-01-23T14:56:50.308Z,1.28
2023-01-23T14:59:04.641Z,1.37
2023-01-23T15:01:14.001Z,1.29
2023-01-23T15:03:41.699Z,1.24
2023-01-23T15:06:00.394Z,1.22
2023-01-23T15:08:20.486Z,1.29
2023-01-23T15:10:31.680Z,1.26
2023-01-23T15:12:40.069Z,1.20
2023-01-23T15:15:01.501Z,1.20
2023-01-23T15:17:16.663Z,1.27
2023-01-23T15:19:26.889Z,1.21
2023-01-23T15:21:37.468Z,1.14
2023-01-23T15:24:03.258Z,1.18
2023-01-23T15:26:34.640Z,1.15
2023-01-23T15:28:46.300Z,1.06
2023-01-23T15:30:56.953Z,1.06
2023-01-23T15:33:07.487Z,1.14
2023-01-23T15:35:19.414Z,1.03
2023-01-23T15:37:29.763Z,1.00
2023-01-23T15:39:41.540Z,0.99
2023-01-23T15:41:53.270Z,0.98
2023-01-23T15:44:01.089Z,1.06
2023-01-23T15:46:13.539Z,1.00
2023-01-23T15:48:22.396Z,0.99
2023-01-23T15:50:30.769Z,0.97
2023-01-23T15:52:49.677Z,1.02
2023-01-23T15:55:02.033Z,0.95
2023-01-23T15:57:10.131Z,0.97
2023-01-23T15:59:19.916Z,1.00
2023-01-23T16:01:31.362Z,1.04
2023-01-23T16:03:39.317Z,1.04
2023-01-23T16:05:47.306Z,1.00
2023-01-23T16:07:56.872Z,1.01
2023-01-23T16:10:08.075Z,0.96
2023-01-23T16:12:19.571Z,0.97
2023-01-23T16:14:27.463Z,1.01
2023-01-23T16:16:38.167Z,1.00
2023-01-23T16:18:47.261Z,1.00
2023-01-23T16:20:56.682Z,1.02
2023-01-23T16:23:14.391Z,0.99
2023-01-23T16:25:43.396Z,0.96
2023-01-23T16:27:52.383Z,1.03
2023-01-23T16:30:00.385Z,1.04
2023-01-23T16:32:12.075Z,1.06
2023-01-23T16:34:20.146Z,1.11
2023-01-23T16:36:28.039Z,1.04
2023-01-23T16:38:36.402Z,1.00
2023-01-23T16:40:44.316Z,1.02
2023-01-23T16:42:54.346Z,0.95
2023-01-23T16:45:02.414Z,1.12
2023-01-23T16:47:12.913Z,1.08
2023-01-23T16:49:20.787Z,0.97
2023-01-23T16:51:29.054Z,0.97
2023-01-23T16:53:39.924Z,0.86
2023-01-23T16:55:48.708Z,0.91
2023-01-23T16:57:59.231Z,0.93
2023-01-23T17:00:08.459Z,0.91
2023-01-23T17:02:24.800Z,0.94
2023-01-23T17:04:32.648Z,0.91
2023-01-23T17:06:40.876Z,0.94
2023-01-23T17:08:50.226Z,0.93
2023-01-23T17:11:00.754Z,0.98
2023-01-23T17:13:09.155Z,0.88
2023-01-23T17:15:24.093Z,0.90
2023-01-23T17:17:38.266Z,1.01
2023-01-23T17:19:47.081Z,1.10
2023-01-23T17:21:54.993Z,1.00
2023-01-23T17:24:03.332Z,1.03
2023-01-23T17:26:17.027Z,1.03
2023-01-23T17:28:25.191Z,0.97
2023-01-23T17:30:33.310Z,1.07
2023-01-23T17:32:43.992Z,1.00
2023-01-23T17:34:52.142Z,1.07
2023-01-23T17:37:00.218Z,1.12
2023-01-23T17:39:08.782Z,1.16
2023-01-23T17:41:17.206Z,1.08
2023-01-23T17:43:26.620Z,1.12
2023-01-23T17:45:34.934Z,1.06
2023-01-23T17:47:47.501Z,1.00
2023-01-23T17:49:57.265Z,1.17
2023-01-23T17:52:05.300Z,1.20
2023-01-23T17:54:21.700Z,1.08
2023-01-23T17:56:29.554Z,1.11
2023-01-23T17:58:38.982Z,1.07
2023-01-23T18:00:52.586Z,1.10
2023-01-23T18:03:05.655Z,1.02
2023-01-23T18:05:14.784Z,1.14
2023-01-23T18:07:22.682Z,1.03
2023-01-23T18:09:30.540Z,1.08
2023-01-23T18:11:41.014Z,1.04
2023-01-23T18:14:18.292Z,1.04
2023-01-23T18:16:28.729Z,0.97
2023-01-23T18:18:43.100Z,0.98
2023-01-23T18:21:01.765Z,1.05
2023-01-23T18:23:14.551Z,1.04
2023-01-23T18:25:25.084Z,1.03
2023-01-23T18:27:39.419Z,1.19
2023-01-23T18:29:58.829Z,1.18
2023-01-23T18:32:29.963Z,1.22
2023-01-23T18:34:52.055Z,1.22
2023-01-23T18:37:11.049Z,1.15
2023-01-23T18:39:36.816Z,1.16
2023-01-23T18:41:57.154Z,1.18
2023-01-23T18:44:09.976Z,1.23
2023-01-23T18:46:20.480Z,1.26
2023-01-23T18:48:29.908Z,1.20
2023-01-23T18:50:46.929Z,1.26
2023-01-23T18:53:09.696Z,1.25
2023-01-23T18:55:27.678Z,1.22
2023-01-23T18:57:50.446Z,1.08
2023-01-23T19:00:12.945Z,1.15
2023-01-23T19:02:33.286Z,1.17
2023-01-23T19:04:48.266Z,1.25
2023-01-23T19:06:59.656Z,1.19
2023-01-23T19:09:08.543Z,1.19
2023-01-23T19:11:27.544Z,1.19
2023-01-23T19:13:47.104Z,1.15
2023-01-23T19:16:09.904Z,1.23
2023-01-23T19:18:39.786Z,1.24
2023-01-23T19:20:53.651Z,1.31
2023-01-23T19:23:35.715Z,1.27
2023-01-23T19:25:45.495Z,1.24
2023-01-23T19:27:57.310Z,1.32
2023-01-23T19:30:06.002Z,1.27
2023-01-23T19:32:14.812Z,1.26
2023-01-23T19:34:23.391Z,1.32
2023-01-23T19:36:33.588Z,1.30
2023-01-23T19:38:44.269Z,1.30
2023-01-23T19:40:52.629Z,1.28
2023-01-23T19:43:13.669Z,1.33
2023-01-23T19:45:23.981Z,1.35
2023-01-23T19:47:32.553Z,1.30
2023-01-23T19:49:40.957Z,1.31
2023-01-23T19:51:49.425Z,1.28
2023-01-23T19:54:00.446Z,1.35
2023-01-23T19:56:09.237Z,1.36
2023-01-23T19:58:17.441Z,1.30
2023-01-23T20:00:26.383Z,1.30
2023-01-23T20:02:34.456Z,1.30
2023-01-23T20:04:42.293Z,1.32
2023-01-23T20:06:52.270Z,1.34
2023-01-23T20:09:02.975Z,1.36
2023-01-23T20:11:12.870Z,1.32
2023-01-23T20:13:20.956Z,1.33
2023-01-23T20:15:30.091Z,1.34
2023-01-23T20:17:38.326Z,1.37
2023-01-23T20:19:48.132Z,1.38
2023-01-23T20:21:55.995Z,1.44
2023-01-23T20:24:08.459Z,1.45
2023-01-23T20:26:20.554Z,1.42
2023-01-23T20:28:28.351Z,1.37
2023-01-23T20:30:36.631Z,1.36
2023-01-23T20:32:44.578Z,1.43
2023-01-23T20:34:53.070Z,1.37
2023-01-23T20:37:00.887Z,1.39
2023-01-23T20:39:13.043Z,1.41
2023-01-23T20:41:24.687Z,1.39
2023-01-23T20:43:32.583Z,1.39
2023-01-23T20:45:50.481Z,1.44
2023-01-23T20:47:58.872Z,1.37
2023-01-23T20:50:07.430Z,1.38
2023-01-23T20:52:27.680Z,1.39
2023-01-23T20:54:38.157Z,1.38
2023-01-23T20:56:46.048Z,1.40
2023-01-23T20:59:06.897Z,1.42
2023-01-23T21:01:15.896Z,1.41
2023-01-23T21:03:23.718Z,1.39
2023-01-23T21:05:31.819Z,1.38
2023-01-23T21:07:39.998Z,1.42
2023-01-23T21:09:51.282Z,1.35
2023-01-23T21:11:59.908Z,1.38
2023-01-23T21:14:08.126Z,1.36
2023-01-23T21:16:18.933Z,1.44
2023-01-23T21:18:27.954Z,1.46
2023-01-23T21:20:36.747Z,1.40
2023-01-23T21:22:45.691Z,1.38
2023-01-23T21:24:56.360Z,1.36
2023-01-23T21:27:04.876Z,1.36
2023-01-23T21:29:13.456Z,1.35
2023-01-23T21:31:24.383Z,1.36
2023-01-23T21:33:32.347Z,1.39
2023-01-23T21:35:40.337Z,1.34
2023-01-23T21:37:48.508Z,1.36
2023-01-23T21:39:59.384Z,1.38
2023-01-23T21:42:10.045Z,1.37
2023-01-23T21:44:18.063Z,1.43
2023-01-23T21:46:26.783Z,1.38
2023-01-23T21:48:36.201Z,1.42
2023-01-23T21:50:43.940Z,1.32
2023-01-23T21:52:52.190Z,1.33
2023-01-23T21:55:02.740Z,1.46
2023-01-23T21:57:10.804Z,1.35
2023-01-23T21:59:19.388Z,1.32
2023-01-23T22:01:42.689Z,1.32
2023-01-23T22:03:52.112Z,1.30
2023-01-23T22:06:01.640Z,1.34
2023-01-23T22:08:09.556Z,1.31
2023-01-23T22:10:20.092Z,1.29
2023-01-23T22:12:28.816Z,1.33
2023-01-23T22:14:36.712Z,1.29
2023-01-23T22:16:49.742Z,1.32
2023-01-23T22:18:58.753Z,1.32
2023-01-23T22:21:08.795Z,1.30
2023-01-23T22:23:16.549Z,1.32
2023-01-23T22:25:26.894Z,1.39
2023-01-23T22:27:34.659Z,1.33
2023-01-23T22:29:42.387Z,1.24
2023-01-23T22:31:51.368Z,1.22
2023-01-23T22:33:59.210Z,1.27
2023-01-23T22:36:08.562Z,1.27
2023-01-23T22:38:18.286Z,1.32
2023-01-23T22:40:28.764Z,1.30
2023-01-23T22:42:36.601Z,1.32
2023-01-23T22:44:44.596Z,1.31
2023-01-23T22:46:53.025Z,1.24
2023-01-23T22:49:00.878Z,1.27
2023-01-23T22:51:10.467Z,1.27
2023-01-23T22:53:18.410Z,1.26
2023-01-23T22:55:29.065Z,1.27
2023-01-23T22:57:36.930Z,1.30
2023-01-23T22:59:44.853Z,1.31
2023-01-23T23:01:52.599Z,1.27
2023-01-23T23:04:01.535Z,1.25
2023-01-23T23:06:12.214Z,1.24
2023-01-23T23:08:19.973Z,1.33
2023-01-23T23:10:30.537Z,1.30
2023-01-23T23:12:38.321Z,1.25
2023-01-23T23:14:46.212Z,1.27
2023-01-23T23:16:53.923Z,1.22
2023-01-23T23:19:05.265Z,1.24
2023-01-23T23:21:15.589Z,1.25
2023-01-23T23:23:24.217Z,1.36
2023-01-23T23:25:34.848Z,1.21
2023-01-23T23:27:43.062Z,1.22
2023-01-23T23:29:50.804Z,1.22
2023-01-23T23:31:58.893Z,1.21
2023-01-23T23:34:06.939Z,1.22
2023-01-23T23:36:15.479Z,1.28
2023-01-23T23:38:23.997Z,1.19
2023-01-23T23:40:34.418Z,1.20
2023-01-23T23:42:42.471Z,1.20
2023-01-23T23:44:50.296Z,1.19
2023-01-23T23:46:58.091Z,1.17
2023-01-23T23:49:06.013Z,1.20
2023-01-23T23:51:16.546Z,1.21
2023-01-23T23:53:25.018Z,1.19
2023-01-23T23:55:35.462Z,1.18
2023-01-23T23:57:43.565Z,1.18
2023-01-23T23:59:51.565Z,1.19
